UAL916 KSLC-KORD
Flight info
| Callsign | UAL916 |
|---|---|
| Flight time | N/A |
| Altitude | 37000 |
| Route | RUGGD3 OCS J94 ONL FOD MYRRS FYTTE7 |
| Aircraft | B738/M-SDE2E3FGHIRWXY/LB1 |
Departure
| Time | 2026-05-04 19:33 |
|---|---|
| Airport | Salt Lake City International Airport (KSLC) |
Arrival
| Time | N/A |
|---|---|
| Airport | Chicago O'Hare International Airport (KORD) |
| Time | Latitude | Longitude | Altitude | Speed | Heading |
|---|---|---|---|---|---|
| 2026-05-04 19:08 | 40.78943 | -111.98834 | 4234 ft | 0 kts | 175° |
| 2026-05-04 19:17 | 40.78955 | -111.98835 | 4232 ft | 3 kts | 175° |
| 2026-05-04 19:17 | 40.78976 | -111.98838 | 4233 ft | 3 kts | 175° |
| 2026-05-04 19:18 | 40.78996 | -111.98840 | 4232 ft | 3 kts | 175° |
| 2026-05-04 19:18 | 40.79017 | -111.98842 | 4233 ft | 3 kts | 175° |
| 2026-05-04 19:18 | 40.79029 | -111.98844 | 4232 ft | 0 kts | 175° |
| 2026-05-04 19:24 | 40.79028 | -111.98844 | 4234 ft | 1 kts | 175° |
| 2026-05-04 19:25 | 40.79022 | -111.98822 | 4234 ft | 4 kts | 72° |
| 2026-05-04 19:25 | 40.79042 | -111.98742 | 4234 ft | 14 kts | 72° |
| 2026-05-04 19:25 | 40.79100 | -111.98602 | 4234 ft | 21 kts | 60° |
| 2026-05-04 19:25 | 40.79158 | -111.98423 | 4234 ft | 21 kts | 72° |
| 2026-05-04 19:26 | 40.79178 | -111.98234 | 4234 ft | 21 kts | 84° |
| 2026-05-04 19:26 | 40.79190 | -111.98048 | 4234 ft | 20 kts | 85° |
| 2026-05-04 19:26 | 40.79202 | -111.97869 | 4234 ft | 19 kts | 85° |
| 2026-05-04 19:26 | 40.79264 | -111.97735 | 4233 ft | 19 kts | 7° |
| 2026-05-04 19:27 | 40.79391 | -111.97750 | 4234 ft | 19 kts | 353° |
| 2026-05-04 19:27 | 40.79525 | -111.97770 | 4233 ft | 20 kts | 353° |
| 2026-05-04 19:27 | 40.79669 | -111.97792 | 4233 ft | 21 kts | 353° |
| 2026-05-04 19:27 | 40.79815 | -111.97808 | 4233 ft | 21 kts | 358° |
| 2026-05-04 19:28 | 40.79957 | -111.97821 | 4234 ft | 20 kts | 355° |
| 2026-05-04 19:28 | 40.80095 | -111.97837 | 4234 ft | 19 kts | 355° |
| 2026-05-04 19:28 | 40.80226 | -111.97852 | 4234 ft | 19 kts | 356° |
| 2026-05-04 19:28 | 40.80355 | -111.97825 | 4234 ft | 19 kts | 8° |
| 2026-05-04 19:29 | 40.80485 | -111.97833 | 4234 ft | 19 kts | 355° |
| 2026-05-04 19:29 | 40.80617 | -111.97849 | 4233 ft | 19 kts | 355° |
| 2026-05-04 19:29 | 40.80698 | -111.97853 | 4233 ft | 9 kts | 11° |
| 2026-05-04 19:29 | 40.80744 | -111.97802 | 4231 ft | 9 kts | 75° |
| 2026-05-04 19:30 | 40.80719 | -111.97730 | 4232 ft | 9 kts | 134° |
| 2026-05-04 19:30 | 40.80669 | -111.97688 | 4232 ft | 9 kts | 165° |
| 2026-05-04 19:30 | 40.80652 | -111.97686 | 4232 ft | 0 kts | 174° |
| 2026-05-04 19:32 | 40.80521 | -111.97669 | 4235 ft | 55 kts | 175° |
| 2026-05-04 19:32 | 40.79875 | -111.97593 | 4233 ft | 129 kts | 174° |
| 2026-05-04 19:32 | 40.78763 | -111.97463 | 4292 ft | 186 kts | 175° |
| 2026-05-04 19:33 | 40.77413 | -111.97299 | 5060 ft | 202 kts | 175° |
| 2026-05-04 19:33 | 40.75939 | -111.97279 | 5624 ft | 227 kts | 195° |
| 2026-05-04 19:33 | 40.74613 | -111.98436 | 5823 ft | 245 kts | 235° |
| 2026-05-04 19:33 | 40.74084 | -112.00581 | 6095 ft | 256 kts | 272° |
| 2026-05-04 19:34 | 40.74637 | -112.02875 | 6368 ft | 273 kts | 303° |
| 2026-05-04 19:34 | 40.75958 | -112.04717 | 7073 ft | 283 kts | 324° |
| 2026-05-04 19:34 | 40.77784 | -112.05678 | 7977 ft | 288 kts | 353° |
| 2026-05-04 19:34 | 40.79799 | -112.05584 | 8869 ft | 292 kts | 6° |
| 2026-05-04 19:35 | 40.81832 | -112.05173 | 9735 ft | 298 kts | 8° |
| 2026-05-04 19:35 | 40.83907 | -112.04733 | 10375 ft | 310 kts | 7° |
| 2026-05-04 19:35 | 40.86143 | -112.04312 | 10568 ft | 337 kts | 7° |
| 2026-05-04 19:35 | 40.88495 | -112.03641 | 11011 ft | 354 kts | 21° |
| 2026-05-04 19:36 | 40.90515 | -112.01827 | 11728 ft | 359 kts | 48° |
| 2026-05-04 19:36 | 40.91733 | -111.98982 | 12610 ft | 358 kts | 75° |
| 2026-05-04 19:36 | 40.92283 | -111.95765 | 13506 ft | 359 kts | 79° |
| 2026-05-04 19:36 | 40.92797 | -111.92512 | 14228 ft | 362 kts | 77° |
| 2026-05-04 19:37 | 40.93433 | -111.89267 | 14916 ft | 367 kts | 74° |
| 2026-05-04 19:37 | 40.94168 | -111.86011 | 15595 ft | 371 kts | 73° |
| 2026-05-04 19:37 | 40.94940 | -111.82741 | 16271 ft | 375 kts | 72° |
| 2026-05-04 19:37 | 40.95719 | -111.79465 | 16944 ft | 379 kts | 73° |
| 2026-05-04 19:38 | 40.96511 | -111.76113 | 17627 ft | 383 kts | 73° |
| 2026-05-04 19:38 | 40.97304 | -111.72722 | 18260 ft | 387 kts | 73° |
| 2026-05-04 19:38 | 40.98100 | -111.69294 | 18833 ft | 391 kts | 73° |
| 2026-05-04 19:38 | 40.98630 | -111.66997 | 19196 ft | 394 kts | 73° |
| 2026-05-04 19:39 | 40.99693 | -111.62373 | 19947 ft | 399 kts | 73° |
| 2026-05-04 19:39 | 41.00505 | -111.58835 | 20497 ft | 403 kts | 73° |
| 2026-05-04 19:39 | 41.01321 | -111.55272 | 21022 ft | 407 kts | 73° |
| 2026-05-04 19:39 | 41.02146 | -111.51663 | 21533 ft | 411 kts | 73° |
| 2026-05-04 19:40 | 41.02699 | -111.49249 | 21892 ft | 414 kts | 73° |
| 2026-05-04 19:40 | 41.03537 | -111.45575 | 22417 ft | 418 kts | 73° |
| 2026-05-04 19:40 | 41.04381 | -111.41860 | 22920 ft | 422 kts | 73° |
| 2026-05-04 19:40 | 41.05115 | -111.38066 | 23418 ft | 426 kts | 78° |
| 2026-05-04 19:41 | 41.05635 | -111.34193 | 23904 ft | 429 kts | 82° |
| 2026-05-04 19:41 | 41.05978 | -111.30243 | 24391 ft | 432 kts | 85° |
| 2026-05-04 19:41 | 41.06193 | -111.26295 | 24846 ft | 435 kts | 86° |
| 2026-05-04 19:41 | 41.06393 | -111.22278 | 25281 ft | 438 kts | 86° |
| 2026-05-04 19:42 | 41.06649 | -111.18246 | 25703 ft | 441 kts | 84° |
| 2026-05-04 19:42 | 41.06973 | -111.14186 | 26120 ft | 444 kts | 84° |
| 2026-05-04 19:42 | 41.07329 | -111.10107 | 26551 ft | 447 kts | 83° |
| 2026-05-04 19:42 | 41.07718 | -111.06004 | 26965 ft | 450 kts | 81° |
| 2026-05-04 19:43 | 41.08340 | -111.01934 | 27340 ft | 453 kts | 75° |
| 2026-05-04 19:43 | 41.09259 | -110.97981 | 27721 ft | 455 kts | 70° |
| 2026-05-04 19:43 | 41.10412 | -110.94061 | 28089 ft | 458 kts | 68° |
| 2026-05-04 19:43 | 41.11620 | -110.90139 | 28448 ft | 460 kts | 68° |
| 2026-05-04 19:44 | 41.12785 | -110.86167 | 28786 ft | 463 kts | 69° |
| 2026-05-04 19:44 | 41.13885 | -110.82133 | 29129 ft | 465 kts | 70° |
| 2026-05-04 19:44 | 41.14942 | -110.78069 | 29452 ft | 468 kts | 71° |
| 2026-05-04 19:44 | 41.15997 | -110.73974 | 29755 ft | 470 kts | 71° |
| 2026-05-04 19:45 | 41.17058 | -110.69848 | 30011 ft | 473 kts | 71° |
| 2026-05-04 19:45 | 41.18126 | -110.65694 | 30234 ft | 476 kts | 71° |
| 2026-05-04 19:45 | 41.19185 | -110.61579 | 30478 ft | 478 kts | 71° |
| 2026-05-04 19:45 | 41.20265 | -110.57376 | 30738 ft | 481 kts | 71° |
| 2026-05-04 19:46 | 41.21344 | -110.53172 | 31031 ft | 482 kts | 71° |
| 2026-05-04 19:46 | 41.22426 | -110.48953 | 31308 ft | 484 kts | 71° |
| 2026-05-04 19:46 | 41.23510 | -110.44711 | 31549 ft | 486 kts | 71° |
| 2026-05-04 19:46 | 41.24599 | -110.40447 | 31809 ft | 488 kts | 70° |
| 2026-05-04 19:47 | 41.25689 | -110.36166 | 32087 ft | 489 kts | 70° |
| 2026-05-04 19:47 | 41.26780 | -110.31876 | 32337 ft | 491 kts | 70° |
| 2026-05-04 19:47 | 41.27860 | -110.27620 | 32562 ft | 493 kts | 70° |
| 2026-05-04 19:47 | 41.28957 | -110.23292 | 32811 ft | 494 kts | 70° |
| 2026-05-04 19:48 | 41.30053 | -110.18957 | 33058 ft | 495 kts | 70° |
| 2026-05-04 19:48 | 41.31153 | -110.14598 | 33268 ft | 497 kts | 70° |
| 2026-05-04 19:48 | 41.32255 | -110.10226 | 33469 ft | 499 kts | 70° |
| 2026-05-04 19:48 | 41.33358 | -110.05842 | 33695 ft | 500 kts | 70° |
| 2026-05-04 19:49 | 41.34460 | -110.01449 | 33902 ft | 501 kts | 70° |
| 2026-05-04 19:49 | 41.35566 | -109.97039 | 34068 ft | 502 kts | 70° |
| 2026-05-04 19:49 | 41.36670 | -109.92622 | 34262 ft | 503 kts | 70° |
| 2026-05-04 19:49 | 41.37773 | -109.88203 | 34493 ft | 503 kts | 70° |
| 2026-05-04 19:50 | 41.38876 | -109.83778 | 34702 ft | 504 kts | 70° |
| 2026-05-04 19:50 | 41.39981 | -109.79333 | 34892 ft | 505 kts | 70° |
| 2026-05-04 19:50 | 41.41077 | -109.74920 | 35096 ft | 506 kts | 70° |
| 2026-05-04 19:50 | 41.42183 | -109.70456 | 35316 ft | 506 kts | 70° |
| 2026-05-04 19:51 | 41.43286 | -109.65995 | 35530 ft | 507 kts | 70° |
| 2026-05-04 19:51 | 41.44392 | -109.61515 | 35718 ft | 508 kts | 70° |
| 2026-05-04 19:51 | 41.45497 | -109.57030 | 35916 ft | 509 kts | 70° |
| 2026-05-04 19:51 | 41.46588 | -109.52593 | 36113 ft | 510 kts | 70° |
| 2026-05-04 19:52 | 41.47693 | -109.48090 | 36346 ft | 510 kts | 70° |
| 2026-05-04 19:52 | 41.48798 | -109.43579 | 36524 ft | 512 kts | 70° |
| 2026-05-04 19:52 | 41.49901 | -109.39067 | 36732 ft | 512 kts | 70° |
| 2026-05-04 19:52 | 41.51005 | -109.34540 | 36851 ft | 515 kts | 70° |
| 2026-05-04 19:53 | 41.52116 | -109.29980 | 36864 ft | 517 kts | 70° |
| 2026-05-04 19:53 | 41.54329 | -109.20863 | 36924 ft | 514 kts | 70° |
| 2026-05-04 19:54 | 41.56514 | -109.11825 | 36942 ft | 509 kts | 70° |
| 2026-05-04 19:54 | 41.58658 | -109.02876 | 36945 ft | 507 kts | 72° |
| 2026-05-04 19:55 | 41.60071 | -108.93664 | 36941 ft | 506 kts | 83° |
| 2026-05-04 19:55 | 41.60632 | -108.84300 | 36899 ft | 506 kts | 86° |
| 2026-05-04 19:56 | 41.61130 | -108.74921 | 36843 ft | 507 kts | 85° |
| 2026-05-04 19:56 | 41.61762 | -108.65571 | 36806 ft | 508 kts | 84° |
| 2026-05-04 19:57 | 41.62476 | -108.56156 | 36761 ft | 510 kts | 84° |
| 2026-05-04 19:57 | 41.63204 | -108.46677 | 36758 ft | 512 kts | 84° |
| 2026-05-04 19:58 | 41.63916 | -108.37175 | 36754 ft | 514 kts | 84° |
| 2026-05-04 19:58 | 41.64614 | -108.27650 | 36752 ft | 515 kts | 84° |
| 2026-05-04 19:59 | 41.65299 | -108.18156 | 36751 ft | 516 kts | 84° |
| 2026-05-04 19:59 | 41.65982 | -108.08596 | 36752 ft | 516 kts | 84° |
| 2026-05-04 20:00 | 41.66658 | -107.99025 | 36750 ft | 516 kts | 84° |
| 2026-05-04 20:00 | 41.67325 | -107.89468 | 36747 ft | 515 kts | 84° |
| 2026-05-04 20:01 | 41.67978 | -107.79991 | 36752 ft | 514 kts | 84° |
| 2026-05-04 20:01 | 41.68628 | -107.70454 | 36746 ft | 513 kts | 84° |
| 2026-05-04 20:02 | 41.69268 | -107.60942 | 36772 ft | 512 kts | 84° |
| 2026-05-04 20:02 | 41.69894 | -107.51520 | 36822 ft | 511 kts | 84° |
| 2026-05-04 20:03 | 41.70516 | -107.42052 | 36872 ft | 510 kts | 84° |
| 2026-05-04 20:03 | 41.71131 | -107.32559 | 36922 ft | 511 kts | 84° |
| 2026-05-04 20:04 | 41.71738 | -107.23070 | 36944 ft | 511 kts | 84° |
| 2026-05-04 20:04 | 41.72333 | -107.13645 | 36941 ft | 511 kts | 85° |
| 2026-05-04 20:05 | 41.72924 | -107.04145 | 36884 ft | 512 kts | 85° |
| 2026-05-04 20:05 | 41.73509 | -106.94625 | 36854 ft | 513 kts | 85° |
| 2026-05-04 20:06 | 41.74087 | -106.85088 | 36798 ft | 514 kts | 85° |
| 2026-05-04 20:06 | 41.74655 | -106.75584 | 36783 ft | 514 kts | 85° |
| 2026-05-04 20:07 | 41.75219 | -106.66016 | 36769 ft | 515 kts | 85° |
| 2026-05-04 20:07 | 41.75775 | -106.56446 | 36753 ft | 516 kts | 85° |
| 2026-05-04 20:08 | 41.76325 | -106.46846 | 36758 ft | 516 kts | 85° |
| 2026-05-04 20:08 | 41.76867 | -106.37248 | 36754 ft | 516 kts | 85° |
| 2026-05-04 20:09 | 41.77397 | -106.27712 | 36761 ft | 516 kts | 85° |
| 2026-05-04 20:09 | 41.77923 | -106.18102 | 36758 ft | 516 kts | 85° |
| 2026-05-04 20:10 | 41.78439 | -106.08522 | 36760 ft | 515 kts | 85° |
| 2026-05-04 20:10 | 41.78948 | -105.98932 | 36761 ft | 515 kts | 85° |
| 2026-05-04 20:11 | 41.79445 | -105.89409 | 36770 ft | 514 kts | 85° |
| 2026-05-04 20:11 | 41.79937 | -105.79838 | 36779 ft | 514 kts | 85° |
| 2026-05-04 20:12 | 41.80421 | -105.70263 | 36785 ft | 514 kts | 85° |
| 2026-05-04 20:12 | 41.80897 | -105.60694 | 36806 ft | 514 kts | 85° |
| 2026-05-04 20:13 | 41.81364 | -105.51125 | 36824 ft | 515 kts | 85° |
| 2026-05-04 20:13 | 41.81825 | -105.41529 | 36824 ft | 516 kts | 85° |
| 2026-05-04 20:14 | 41.82278 | -105.31931 | 36853 ft | 515 kts | 85° |
| 2026-05-04 20:14 | 41.82723 | -105.22347 | 36868 ft | 515 kts | 86° |
| 2026-05-04 20:15 | 41.83157 | -105.12810 | 36893 ft | 516 kts | 86° |
| 2026-05-04 20:15 | 41.83586 | -105.03197 | 36897 ft | 516 kts | 86° |
| 2026-05-04 20:16 | 41.84008 | -104.93575 | 36900 ft | 516 kts | 86° |
| 2026-05-04 20:16 | 41.84422 | -104.83949 | 36897 ft | 516 kts | 86° |
| 2026-05-04 20:17 | 41.84825 | -104.74395 | 36895 ft | 516 kts | 86° |
| 2026-05-04 20:17 | 41.85223 | -104.64761 | 36879 ft | 516 kts | 86° |
| 2026-05-04 20:18 | 41.85613 | -104.55132 | 36849 ft | 516 kts | 86° |
| 2026-05-04 20:18 | 41.85991 | -104.45589 | 36859 ft | 516 kts | 86° |
| 2026-05-04 20:19 | 41.86366 | -104.35952 | 36855 ft | 516 kts | 86° |
| 2026-05-04 20:19 | 41.86732 | -104.26314 | 36864 ft | 516 kts | 86° |
| 2026-05-04 20:20 | 41.87087 | -104.16754 | 36869 ft | 516 kts | 86° |
| 2026-05-04 20:20 | 41.87436 | -104.07117 | 36875 ft | 516 kts | 86° |
| 2026-05-04 20:21 | 41.87779 | -103.97465 | 36856 ft | 517 kts | 86° |
| 2026-05-04 20:21 | 41.88275 | -103.83049 | 36874 ft | 517 kts | 86° |
| 2026-05-04 20:22 | 41.88597 | -103.73383 | 36899 ft | 517 kts | 86° |
| 2026-05-04 20:22 | 41.88911 | -103.63730 | 36895 ft | 517 kts | 86° |
| 2026-05-04 20:23 | 41.89219 | -103.54076 | 36897 ft | 517 kts | 86° |
| 2026-05-04 20:23 | 41.89662 | -103.44502 | 36890 ft | 516 kts | 82° |
| 2026-05-04 20:24 | 41.90759 | -103.35000 | 36882 ft | 514 kts | 76° |
| 2026-05-04 20:24 | 41.92320 | -103.25616 | 36873 ft | 514 kts | 74° |
| 2026-05-04 20:25 | 41.93864 | -103.16248 | 36861 ft | 514 kts | 76° |
| 2026-05-04 20:25 | 41.95245 | -103.06838 | 36879 ft | 513 kts | 77° |
| 2026-05-04 20:26 | 41.96324 | -102.98986 | 36887 ft | 513 kts | 77° |
| 2026-05-04 20:26 | 41.97600 | -102.89548 | 36898 ft | 513 kts | 77° |
| 2026-05-04 20:27 | 41.98870 | -102.80174 | 36902 ft | 512 kts | 77° |
| 2026-05-04 20:27 | 42.00148 | -102.70740 | 36900 ft | 512 kts | 77° |
| 2026-05-04 20:28 | 42.01421 | -102.61305 | 36893 ft | 512 kts | 77° |
| 2026-05-04 20:28 | 42.02682 | -102.51892 | 36884 ft | 511 kts | 77° |
| 2026-05-04 20:29 | 42.03929 | -102.42526 | 36870 ft | 511 kts | 78° |
| 2026-05-04 20:29 | 42.05175 | -102.33096 | 36864 ft | 511 kts | 78° |
| 2026-05-04 20:30 | 42.06410 | -102.23685 | 36862 ft | 511 kts | 78° |
| 2026-05-04 20:30 | 42.07640 | -102.14258 | 36861 ft | 511 kts | 78° |
| 2026-05-04 20:31 | 42.08861 | -102.04826 | 36856 ft | 511 kts | 78° |
| 2026-05-04 20:31 | 42.10074 | -101.95400 | 36857 ft | 511 kts | 78° |
| 2026-05-04 20:32 | 42.11281 | -101.85957 | 36855 ft | 511 kts | 78° |
| 2026-05-04 20:32 | 42.12473 | -101.76570 | 36855 ft | 511 kts | 78° |
| 2026-05-04 20:33 | 42.13665 | -101.67114 | 36854 ft | 511 kts | 78° |
| 2026-05-04 20:33 | 42.14850 | -101.57655 | 36851 ft | 512 kts | 78° |
| 2026-05-04 20:34 | 42.16026 | -101.48194 | 36853 ft | 511 kts | 78° |
| 2026-05-04 20:34 | 42.17194 | -101.38731 | 36851 ft | 512 kts | 78° |
| 2026-05-04 20:35 | 42.18348 | -101.29319 | 36847 ft | 511 kts | 78° |
| 2026-05-04 20:35 | 42.19501 | -101.19850 | 36851 ft | 511 kts | 78° |
| 2026-05-04 20:36 | 42.20646 | -101.10381 | 36853 ft | 511 kts | 78° |
| 2026-05-04 20:36 | 42.21784 | -101.00900 | 36846 ft | 511 kts | 79° |
| 2026-05-04 20:37 | 42.22912 | -100.91435 | 36846 ft | 511 kts | 79° |
| 2026-05-04 20:37 | 42.24034 | -100.81946 | 36850 ft | 511 kts | 79° |
| 2026-05-04 20:38 | 42.25141 | -100.72522 | 36852 ft | 511 kts | 79° |
| 2026-05-04 20:38 | 42.26244 | -100.63051 | 36846 ft | 511 kts | 79° |
| 2026-05-04 20:39 | 42.27342 | -100.53561 | 36856 ft | 510 kts | 79° |
| 2026-05-04 20:39 | 42.28424 | -100.44144 | 36852 ft | 510 kts | 79° |
| 2026-05-04 20:40 | 42.29507 | -100.34643 | 36850 ft | 511 kts | 79° |
| 2026-05-04 20:40 | 42.30580 | -100.25155 | 36852 ft | 511 kts | 79° |
| 2026-05-04 20:41 | 42.31647 | -100.15646 | 36858 ft | 511 kts | 79° |
| 2026-05-04 20:41 | 42.32699 | -100.06202 | 36877 ft | 512 kts | 79° |
| 2026-05-04 20:42 | 42.33754 | -99.96666 | 36863 ft | 514 kts | 79° |
| 2026-05-04 20:42 | 42.34802 | -99.87103 | 36850 ft | 513 kts | 79° |
| 2026-05-04 20:43 | 42.35841 | -99.77547 | 36857 ft | 512 kts | 79° |
| 2026-05-04 20:43 | 42.36872 | -99.68000 | 36849 ft | 512 kts | 79° |
| 2026-05-04 20:44 | 42.37890 | -99.58482 | 36842 ft | 511 kts | 79° |
| 2026-05-04 20:44 | 42.38902 | -99.48955 | 36841 ft | 511 kts | 79° |
| 2026-05-04 20:45 | 42.39898 | -99.39501 | 36836 ft | 510 kts | 79° |
| 2026-05-04 20:45 | 42.40893 | -99.29983 | 36836 ft | 510 kts | 79° |
| 2026-05-04 20:46 | 42.41879 | -99.20462 | 36840 ft | 509 kts | 79° |
| 2026-05-04 20:46 | 42.42849 | -99.11024 | 36844 ft | 509 kts | 80° |
| 2026-05-04 20:47 | 42.43819 | -99.01514 | 36845 ft | 509 kts | 80° |
| 2026-05-04 20:47 | 42.44779 | -98.92008 | 36854 ft | 509 kts | 80° |
| 2026-05-04 20:48 | 42.45732 | -98.82497 | 36851 ft | 510 kts | 80° |
| 2026-05-04 20:48 | 42.46674 | -98.73030 | 36859 ft | 510 kts | 80° |